createdAt,value
2022-07-27T00:01:09.802Z,101603.88
2022-07-27T00:03:38.993Z,101609.03
2022-07-27T00:06:07.608Z,101599.41
2022-07-27T00:08:35.928Z,101601.25
2022-07-27T00:11:03.910Z,101595.75
2022-07-27T00:13:32.299Z,101602.09
2022-07-27T00:16:00.426Z,101599.06
2022-07-27T00:18:29.970Z,101597.63
2022-07-27T00:20:58.156Z,101597.31
2022-07-27T00:23:26.151Z,101595.69
2022-07-27T00:25:54.212Z,101587.59
2022-07-27T00:28:22.401Z,101589.75
2022-07-27T00:30:50.435Z,101598.72
2022-07-27T00:33:18.491Z,101595.44
2022-07-27T00:35:48.072Z,101605.56
2022-07-27T00:38:16.677Z,101595.66
2022-07-27T00:40:45.259Z,101594.78
2022-07-27T00:43:13.921Z,101597.03
2022-07-27T00:45:41.989Z,101601.34
2022-07-27T00:48:10.011Z,101596.91
2022-07-27T00:50:39.657Z,101595.06
2022-07-27T00:53:09.543Z,101598.50
2022-07-27T00:55:39.648Z,101595.94
2022-07-27T00:58:09.917Z,101596.16
2022-07-27T01:00:39.721Z,101587.56
2022-07-27T01:03:09.834Z,101589.31
2022-07-27T01:05:43.094Z,101593.81
2022-07-27T01:08:15.039Z,101595.94
2022-07-27T01:10:44.908Z,101600.47
2022-07-27T01:13:13.890Z,101601.09
2022-07-27T01:15:43.611Z,101601.84
2022-07-27T01:18:26.720Z,101594.38
2022-07-27T01:20:54.769Z,101592.53
2022-07-27T01:23:24.543Z,101591.41
2022-07-27T01:25:52.726Z,101594.22
2022-07-27T01:28:20.930Z,101590.25
2022-07-27T01:30:49.103Z,101593.72
2022-07-27T01:33:17.440Z,101588.94
2022-07-27T01:35:45.406Z,101594.69
2022-07-27T01:38:13.893Z,101592.97
2022-07-27T01:40:43.483Z,101579.66
2022-07-27T01:43:11.491Z,101596.69
2022-07-27T01:45:41.033Z,101589.34
2022-07-27T01:48:09.024Z,101589.59
2022-07-27T01:50:37.082Z,101582.25
2022-07-27T01:53:05.154Z,101587.66
2022-07-27T01:55:38.633Z,101585.94
2022-07-27T01:58:09.468Z,101577.34
2022-07-27T02:00:38.302Z,101572.81
2022-07-27T02:03:07.879Z,101569.25
2022-07-27T02:05:36.561Z,101571.22
2022-07-27T02:08:04.975Z,101576.00
2022-07-27T02:10:33.655Z,101580.56
2022-07-27T02:13:00.805Z,101579.94
2022-07-27T02:15:44.885Z,101577.13
2022-07-27T02:18:29.361Z,101576.38
2022-07-27T02:21:01.251Z,101573.63
2022-07-27T02:23:29.205Z,101569.56
2022-07-27T02:25:57.175Z,101575.00
2022-07-27T02:28:25.240Z,101576.19
2022-07-27T02:30:54.726Z,101577.28
2022-07-27T02:33:22.674Z,101578.16
2022-07-27T02:35:52.001Z,101572.53
2022-07-27T02:38:20.365Z,101574.63
2022-07-27T02:40:48.520Z,101573.81
2022-07-27T02:43:16.643Z,101579.84
2022-07-27T02:45:46.493Z,101572.94
2022-07-27T02:48:16.371Z,101578.44
2022-07-27T02:50:44.466Z,101575.13
2022-07-27T02:53:12.620Z,101581.88
2022-07-27T02:55:40.836Z,101574.88
2022-07-27T02:58:08.794Z,101577.28
2022-07-27T03:00:36.795Z,101585.78
2022-07-27T03:03:05.059Z,101582.22
2022-07-27T03:05:34.698Z,101579.91
2022-07-27T03:08:04.172Z,101574.00
2022-07-27T03:10:32.387Z,101572.31
2022-07-27T03:13:00.372Z,101575.97
2022-07-27T03:15:29.728Z,101575.84
2022-07-27T03:17:58.305Z,101575.69
2022-07-27T03:20:26.244Z,101583.28
2022-07-27T03:22:55.825Z,101587.84
2022-07-27T03:25:24.173Z,101580.47
2022-07-27T03:27:52.142Z,101581.13
2022-07-27T03:30:20.154Z,101583.72
2022-07-27T03:32:49.074Z,101581.03
2022-07-27T03:35:17.240Z,101594.38
2022-07-27T03:37:47.872Z,101593.19
2022-07-27T03:40:17.417Z,101592.25
2022-07-27T03:42:45.942Z,101594.63
2022-07-27T03:45:13.925Z,101604.53
2022-07-27T03:47:42.160Z,101603.16
2022-07-27T03:50:10.703Z,101599.19
2022-07-27T03:52:38.685Z,101600.69
2022-07-27T03:55:08.027Z,101599.06
2022-07-27T03:57:37.390Z,101593.09
2022-07-27T04:00:06.920Z,101594.53
2022-07-27T04:02:34.929Z,101590.75
2022-07-27T04:05:03.025Z,101591.63
2022-07-27T04:07:31.179Z,101587.63
2022-07-27T04:09:59.231Z,101592.16
2022-07-27T04:12:27.225Z,101595.81
2022-07-27T04:14:56.623Z,101592.38
2022-07-27T04:17:53.583Z,101597.44
2022-07-27T04:20:12.877Z,101600.22
2022-07-27T04:22:42.914Z,101602.28
2022-07-27T04:25:12.144Z,101601.09
2022-07-27T04:27:40.231Z,101604.00
2022-07-27T04:30:11.051Z,101599.66
2022-07-27T04:32:39.389Z,101598.47
2022-07-27T04:35:08.956Z,101603.44
2022-07-27T04:37:37.156Z,101597.69
2022-07-27T04:40:07.219Z,101608.66
2022-07-27T04:42:35.309Z,101609.19
2022-07-27T04:45:04.151Z,101605.53
2022-07-27T04:47:33.479Z,101603.22
2022-07-27T04:50:01.488Z,101604.09
2022-07-27T04:52:29.524Z,101602.78
2022-07-27T04:54:58.293Z,101611.41
2022-07-27T04:57:26.376Z,101608.97
2022-07-27T04:59:59.549Z,101604.47
2022-07-27T05:02:28.447Z,101611.00
2022-07-27T05:04:57.797Z,101609.38
2022-07-27T05:07:25.858Z,101606.09
2022-07-27T05:09:53.949Z,101608.31
2022-07-27T05:12:21.936Z,101609.94
2022-07-27T05:14:50.021Z,101612.91
2022-07-27T05:17:17.941Z,101606.31
2022-07-27T05:19:45.958Z,101608.25
2022-07-27T05:22:15.359Z,101611.59
2022-07-27T05:24:43.599Z,101609.72
2022-07-27T05:27:12.223Z,101621.66
2022-07-27T05:29:40.620Z,101619.22
2022-07-27T05:32:09.554Z,101619.38
2022-07-27T05:34:37.795Z,101621.81
2022-07-27T05:37:05.898Z,101630.56
2022-07-27T05:39:35.445Z,101635.72
2022-07-27T05:42:04.430Z,101631.94
2022-07-27T05:44:32.710Z,101630.06
2022-07-27T05:47:00.612Z,101638.56
2022-07-27T05:49:28.852Z,101635.13
2022-07-27T05:51:56.899Z,101630.94
2022-07-27T05:54:24.867Z,101643.69
2022-07-27T05:56:54.316Z,101638.31
2022-07-27T05:59:23.599Z,101641.28
2022-07-27T06:01:51.550Z,101640.84
2022-07-27T06:04:19.715Z,101644.94
2022-07-27T06:07:05.712Z,101644.94
2022-07-27T06:09:33.698Z,101658.94
2022-07-27T06:12:03.196Z,101650.69
2022-07-27T06:14:31.257Z,101662.09
2022-07-27T06:16:59.192Z,101668.81
2022-07-27T06:19:35.816Z,101665.63
2022-07-27T06:22:04.405Z,101677.25
2022-07-27T06:24:32.410Z,101667.88
2022-07-27T06:27:00.628Z,101671.13
2022-07-27T06:29:30.217Z,101667.59
2022-07-27T06:31:58.209Z,101671.56
2022-07-27T06:34:27.609Z,101680.44
2022-07-27T06:36:57.116Z,101669.19
2022-07-27T06:39:24.984Z,101671.91
2022-07-27T06:41:57.938Z,101669.56
2022-07-27T06:44:26.354Z,101673.13
2022-07-27T06:46:55.783Z,101676.81
2022-07-27T06:49:23.815Z,101673.25
2022-07-27T06:51:51.917Z,101671.41
2022-07-27T06:54:19.952Z,101673.84
2022-07-27T06:56:47.871Z,101674.97
2022-07-27T06:59:16.096Z,101676.19
2022-07-27T07:01:48.588Z,101675.22
2022-07-27T07:04:18.597Z,101674.00
2022-07-27T07:06:53.362Z,101671.41
2022-07-27T07:09:22.241Z,101670.66
2022-07-27T07:11:50.181Z,101673.00
2022-07-27T07:14:18.049Z,101676.88
2022-07-27T07:16:46.214Z,101669.47
2022-07-27T07:19:14.359Z,101671.47
2022-07-27T07:21:43.771Z,101670.94
2022-07-27T07:24:11.888Z,101679.59
2022-07-27T07:26:40.372Z,101674.56
2022-07-27T07:29:09.387Z,101681.63
2022-07-27T07:31:38.148Z,101682.94
2022-07-27T07:34:06.228Z,101669.69
2022-07-27T07:36:34.121Z,101668.50
2022-07-27T07:39:03.496Z,101673.69
2022-07-27T07:41:31.499Z,101674.25
2022-07-27T07:43:59.412Z,101667.59
2022-07-27T07:46:27.498Z,101667.25
2022-07-27T07:48:55.513Z,101663.75
2022-07-27T07:51:23.464Z,101677.09
2022-07-27T07:53:51.433Z,101664.25
2022-07-27T07:56:20.765Z,101670.28
2022-07-27T07:58:48.875Z,101671.53
2022-07-27T08:01:17.028Z,101671.81
2022-07-27T08:03:50.667Z,101666.94
2022-07-27T08:06:19.177Z,101671.69
2022-07-27T08:08:47.133Z,101676.25
2022-07-27T08:11:15.087Z,101667.34
2022-07-27T08:13:44.431Z,101669.59
2022-07-27T08:16:13.509Z,101668.69
2022-07-27T08:18:41.444Z,101684.50
2022-07-27T08:21:09.687Z,101694.41
2022-07-27T08:23:37.882Z,101692.28
2022-07-27T08:26:08.240Z,101702.69
2022-07-27T08:28:36.972Z,101714.94
2022-07-27T08:31:14.675Z,101720.97
2022-07-27T08:33:45.146Z,101720.31
2022-07-27T08:36:13.068Z,101720.19
2022-07-27T08:38:41.014Z,101720.38
2022-07-27T08:41:11.618Z,101710.84
2022-07-27T08:43:43.394Z,101712.50
2022-07-27T08:46:13.736Z,101713.13
2022-07-27T08:48:41.798Z,101708.41
2022-07-27T08:51:09.960Z,101711.22
2022-07-27T08:53:52.290Z,101710.00
2022-07-27T08:56:22.108Z,101708.41
2022-07-27T08:58:50.089Z,101705.00
2022-07-27T09:01:19.445Z,101710.09
2022-07-27T09:03:48.239Z,101704.69
2022-07-27T09:06:43.763Z,101707.19
2022-07-27T09:09:12.853Z,101709.41
2022-07-27T09:11:41.620Z,101718.47
2022-07-27T09:14:12.492Z,101702.38
2022-07-27T09:17:28.616Z,101706.31
2022-07-27T09:19:29.805Z,101700.03
2022-07-27T09:21:57.680Z,101712.72
2022-07-27T09:24:46.033Z,101702.97
2022-07-27T09:27:15.493Z,101695.25
2022-07-27T09:29:43.387Z,101705.41
2022-07-27T09:32:17.111Z,101703.31
2022-07-27T09:34:46.206Z,101712.44
2022-07-27T09:37:24.722Z,101718.25
2022-07-27T09:40:10.435Z,101715.63
2022-07-27T09:43:09.093Z,101724.34
2022-07-27T09:45:32.659Z,101731.09
2022-07-27T09:48:25.178Z,101725.63
2022-07-27T09:51:19.702Z,101709.50
2022-07-27T09:53:51.168Z,101711.75
2022-07-27T09:56:19.164Z,101708.53
2022-07-27T09:58:50.312Z,101713.78
2022-07-27T10:01:21.590Z,101720.25
2022-07-27T10:03:52.547Z,101704.59
2022-07-27T10:06:20.536Z,101706.53
2022-07-27T10:08:50.217Z,101716.16
2022-07-27T10:11:19.721Z,101725.97
2022-07-27T10:13:48.860Z,101724.91
2022-07-27T10:16:19.481Z,101718.13
2022-07-27T10:18:58.701Z,101726.00
2022-07-27T10:21:27.456Z,101732.41
2022-07-27T10:23:58.077Z,101734.72
2022-07-27T10:26:32.492Z,101740.56
2022-07-27T10:29:02.752Z,101736.84
2022-07-27T10:31:32.516Z,101737.75
2022-07-27T10:34:03.456Z,101741.13
2022-07-27T10:36:49.461Z,101750.13
2022-07-27T10:39:35.556Z,101738.56
2022-07-27T10:42:20.779Z,101726.72
2022-07-27T10:45:10.492Z,101728.47
2022-07-27T10:47:41.891Z,101722.94
2022-07-27T10:50:31.935Z,101718.34
2022-07-27T10:53:08.345Z,101725.50
2022-07-27T10:55:47.263Z,101727.97
2022-07-27T10:58:51.583Z,101730.75
2022-07-27T11:01:21.594Z,101727.97
2022-07-27T11:03:57.196Z,101721.28
2022-07-27T11:06:44.956Z,101729.28
2022-07-27T11:10:02.231Z,101736.84
2022-07-27T11:12:11.821Z,101729.28
2022-07-27T11:14:47.679Z,101732.69
2022-07-27T11:17:48.712Z,101722.50
2022-07-27T11:20:05.917Z,101724.66
2022-07-27T11:25:25.865Z,101739.88
2022-07-27T11:27:53.846Z,101748.97
2022-07-27T11:30:27.453Z,101744.88
2022-07-27T11:32:56.549Z,101745.59
2022-07-27T11:35:25.048Z,101755.59
2022-07-27T11:38:02.574Z,101757.28
2022-07-27T11:41:12.781Z,101769.88
2022-07-27T11:43:37.222Z,101758.28
2022-07-27T11:46:24.302Z,101761.88
2022-07-27T11:49:10.742Z,101768.16
2022-07-27T11:51:41.617Z,101756.00
2022-07-27T11:54:13.062Z,101769.91
2022-07-27T11:56:44.474Z,101760.59
2022-07-27T11:59:15.982Z,101751.41
2022-07-27T12:01:47.845Z,101757.75
2022-07-27T12:04:24.794Z,101769.09
2022-07-27T12:06:59.403Z,101766.00
2022-07-27T12:09:38.328Z,101763.28
2022-07-27T12:12:12.820Z,101761.44
2022-07-27T12:14:43.429Z,101760.31
2022-07-27T12:17:29.788Z,101767.19
2022-07-27T12:20:00.587Z,101762.34
2022-07-27T12:22:35.029Z,101760.72
2022-07-27T12:25:15.895Z,101764.31
2022-07-27T12:27:55.438Z,101772.13
2022-07-27T12:30:31.399Z,101769.94
2022-07-27T12:32:59.715Z,101773.19
2022-07-27T12:35:35.969Z,101776.78
2022-07-27T12:38:07.884Z,101770.81
2022-07-27T12:40:45.428Z,101769.28
2022-07-27T12:43:17.219Z,101765.47
2022-07-27T12:45:45.770Z,101772.75
2022-07-27T12:48:16.635Z,101762.75
2022-07-27T12:50:46.920Z,101763.84
2022-07-27T12:53:16.775Z,101773.72
2022-07-27T12:55:46.469Z,101761.59
2022-07-27T12:58:15.136Z,101766.38
2022-07-27T13:00:43.251Z,101760.97
2022-07-27T13:03:11.529Z,101770.88
2022-07-27T13:05:39.475Z,101764.72
2022-07-27T13:08:08.059Z,101764.16
2022-07-27T13:10:37.585Z,101766.69
2022-07-27T13:13:08.501Z,101775.28
2022-07-27T13:15:36.628Z,101763.41
2022-07-27T13:18:04.664Z,101762.16
2022-07-27T13:20:32.937Z,101761.03
2022-07-27T13:23:00.838Z,101755.03
2022-07-27T13:25:28.824Z,101755.59
2022-07-27T13:27:56.814Z,101771.88
2022-07-27T13:30:26.833Z,101769.16
2022-07-27T13:32:54.947Z,101774.44
2022-07-27T13:35:22.979Z,101770.03
2022-07-27T13:37:50.967Z,101773.63
2022-07-27T13:40:19.430Z,101770.31
2022-07-27T13:42:47.338Z,101773.88
2022-07-27T13:45:15.332Z,101772.75
2022-07-27T13:47:44.711Z,101771.88
2022-07-27T13:50:18.981Z,101777.47
2022-07-27T13:52:48.235Z,101769.88
2022-07-27T13:55:16.751Z,101769.72
2022-07-27T13:57:45.477Z,101772.75
2022-07-27T14:00:14.516Z,101767.28
2022-07-27T14:02:42.795Z,101773.84
2022-07-27T14:05:14.299Z,101767.16
2022-07-27T14:07:43.466Z,101763.28
2022-07-27T14:10:30.637Z,101771.41
2022-07-27T14:13:07.775Z,101772.72
2022-07-27T14:15:53.102Z,101766.47
2022-07-27T14:18:25.459Z,101764.06
2022-07-27T14:20:55.297Z,101753.59
2022-07-27T14:23:23.422Z,101751.91
2022-07-27T14:25:52.118Z,101761.19
2022-07-27T14:28:20.386Z,101756.66
2022-07-27T14:30:49.317Z,101753.34
2022-07-27T14:33:17.654Z,101750.25
2022-07-27T14:35:45.987Z,101746.16
2022-07-27T14:38:28.272Z,101755.91
2022-07-27T14:40:59.566Z,101749.13
2022-07-27T14:43:28.546Z,101741.63
2022-07-27T14:45:56.654Z,101745.19
2022-07-27T14:48:42.236Z,101748.09
2022-07-27T14:51:12.774Z,101748.81
2022-07-27T14:53:42.086Z,101733.69
2022-07-27T14:56:10.289Z,101748.16
2022-07-27T14:58:38.271Z,101729.97
2022-07-27T15:01:06.380Z,101740.13
2022-07-27T15:03:34.433Z,101736.28
2022-07-27T15:06:02.425Z,101731.72
2022-07-27T15:08:30.368Z,101721.00
2022-07-27T15:10:59.740Z,101725.44
2022-07-27T15:13:27.849Z,101741.00
2022-07-27T15:15:57.470Z,101739.44
2022-07-27T15:18:25.483Z,101731.84
2022-07-27T15:20:53.433Z,101728.72
2022-07-27T15:23:22.376Z,101733.72
2022-07-27T15:25:50.546Z,101742.28
2022-07-27T15:28:19.939Z,101735.16
2022-07-27T15:30:48.811Z,101731.00
2022-07-27T15:33:19.458Z,101742.44
2022-07-27T15:35:47.537Z,101742.72
2022-07-27T15:38:15.814Z,101756.00
2022-07-27T15:40:43.722Z,101744.53
2022-07-27T15:43:15.394Z,101744.78
2022-07-27T15:45:48.132Z,101742.19
2022-07-27T15:48:17.711Z,101745.84
2022-07-27T15:50:49.004Z,101736.41
2022-07-27T15:53:18.780Z,101736.59
2022-07-27T15:55:47.594Z,101733.34
2022-07-27T15:58:18.059Z,101737.53
2022-07-27T16:00:48.725Z,101740.34
2022-07-27T16:03:17.837Z,101748.56
2022-07-27T16:05:48.545Z,101742.75
2022-07-27T16:08:18.305Z,101744.44
2022-07-27T16:10:47.737Z,101735.75
2022-07-27T16:13:16.095Z,101742.66
2022-07-27T16:16:02.119Z,101737.69
2022-07-27T16:18:36.775Z,101740.56
2022-07-27T16:21:07.157Z,101749.53
2022-07-27T16:23:35.798Z,101743.34
2022-07-27T16:26:05.407Z,101745.63
2022-07-27T16:28:35.542Z,101747.59
2022-07-27T16:31:04.962Z,101747.00
2022-07-27T16:33:34.700Z,101740.28
2022-07-27T16:36:02.737Z,101742.25
2022-07-27T16:38:30.608Z,101740.72
2022-07-27T16:40:58.520Z,101745.28
2022-07-27T16:43:37.970Z,101754.53
2022-07-27T16:46:07.852Z,101741.66
2022-07-27T16:48:42.194Z,101745.16
2022-07-27T16:51:12.090Z,101739.13
2022-07-27T16:53:40.681Z,101743.09
2022-07-27T16:56:09.047Z,101744.00
2022-07-27T16:58:37.550Z,101746.53
2022-07-27T17:01:05.987Z,101739.16
2022-07-27T17:03:34.223Z,101747.75
2022-07-27T17:06:06.425Z,101756.63
2022-07-27T17:08:34.782Z,101735.84
2022-07-27T17:11:02.951Z,101747.25
2022-07-27T17:13:34.796Z,101748.84
2022-07-27T17:16:03.110Z,101752.22
2022-07-27T17:18:37.203Z,101752.47
2022-07-27T17:21:09.705Z,101756.34
2022-07-27T17:23:38.929Z,101749.47
2022-07-27T17:26:08.852Z,101757.34
2022-07-27T17:28:39.504Z,101763.94
2022-07-27T17:31:09.373Z,101758.38
2022-07-27T17:33:37.566Z,101763.63
2022-07-27T17:36:10.854Z,101760.81
2022-07-27T17:38:44.607Z,101764.84
2022-07-27T17:41:13.513Z,101772.13
2022-07-27T17:43:41.791Z,101769.81
2022-07-27T17:46:11.036Z,101764.53
2022-07-27T17:48:39.633Z,101762.59
2022-07-27T17:51:10.525Z,101772.28
2022-07-27T17:53:39.044Z,101774.00
2022-07-27T17:56:08.686Z,101768.06
2022-07-27T17:58:38.026Z,101767.34
2022-07-27T18:01:07.305Z,101768.22
2022-07-27T18:03:35.493Z,101768.22
2022-07-27T18:06:03.624Z,101774.97
2022-07-27T18:08:31.580Z,101774.47
2022-07-27T18:10:59.688Z,101770.53
2022-07-27T18:13:39.552Z,101777.41
2022-07-27T18:16:09.382Z,101778.38
2022-07-27T18:18:37.471Z,101780.72
2022-07-27T18:21:06.453Z,101788.72
2022-07-27T18:23:34.770Z,101789.06
2022-07-27T18:26:02.753Z,101794.72
2022-07-27T18:28:38.965Z,101784.66
2022-07-27T18:31:08.398Z,101792.88
2022-07-27T18:33:36.993Z,101795.94
2022-07-27T18:36:06.385Z,101795.94
2022-07-27T18:38:34.513Z,101803.69
2022-07-27T18:41:03.028Z,101800.22
2022-07-27T18:43:32.521Z,101800.69
2022-07-27T18:46:00.740Z,101795.03
2022-07-27T18:48:28.935Z,101804.91
2022-07-27T18:50:57.178Z,101809.56
2022-07-27T18:53:25.501Z,101799.09
2022-07-27T18:55:56.469Z,101795.31
2022-07-27T18:58:25.510Z,101804.34
2022-07-27T19:00:55.632Z,101806.94
2022-07-27T19:03:24.695Z,101811.72
2022-07-27T19:05:56.188Z,101816.00
2022-07-27T19:08:24.896Z,101813.25
2022-07-27T19:10:52.989Z,101815.72
2022-07-27T19:13:21.223Z,101815.56
2022-07-27T19:15:49.186Z,101809.41
2022-07-27T19:18:19.026Z,101820.69
2022-07-27T19:20:48.002Z,101825.25
2022-07-27T19:23:15.877Z,101823.69
2022-07-27T19:25:45.251Z,101828.81
2022-07-27T19:28:17.006Z,101835.41
2022-07-27T19:30:45.436Z,101831.31
2022-07-27T19:33:13.426Z,101842.97
2022-07-27T19:35:43.192Z,101840.38
2022-07-27T19:38:11.999Z,101841.69
2022-07-27T19:40:45.046Z,101839.75
2022-07-27T19:43:13.873Z,101846.44
2022-07-27T19:45:42.588Z,101844.97
2022-07-27T19:48:10.597Z,101849.69
2022-07-27T19:50:38.732Z,101844.66
2022-07-27T19:53:08.313Z,101852.22
2022-07-27T19:55:36.168Z,101857.28
2022-07-27T19:58:04.191Z,101866.56
2022-07-27T20:00:32.182Z,101864.09
2022-07-27T20:03:00.244Z,101857.53
2022-07-27T20:05:28.536Z,101867.75
2022-07-27T20:07:56.517Z,101858.91
2022-07-27T20:10:26.381Z,101865.28
2022-07-27T20:12:54.374Z,101864.66
2022-07-27T20:15:22.719Z,101863.66
2022-07-27T20:17:50.843Z,101864.41
2022-07-27T20:20:19.057Z,101861.84
2022-07-27T20:22:46.982Z,101863.00
2022-07-27T20:25:15.654Z,101865.69
2022-07-27T20:27:45.698Z,101860.97
2022-07-27T20:30:16.265Z,101868.09
2022-07-27T20:32:44.727Z,101873.38
2022-07-27T20:35:12.965Z,101869.66
2022-07-27T20:37:41.159Z,101867.97
2022-07-27T20:40:11.649Z,101871.31
2022-07-27T20:42:40.390Z,101870.03
2022-07-27T20:45:14.456Z,101866.56
2022-07-27T20:47:42.947Z,101869.44
2022-07-27T20:50:12.559Z,101862.66
2022-07-27T20:52:41.264Z,101868.56
2022-07-27T20:55:10.604Z,101874.06
2022-07-27T20:57:38.564Z,101869.56
2022-07-27T21:00:08.503Z,101866.97
2022-07-27T21:02:39.053Z,101867.63
2022-07-27T21:05:08.768Z,101868.69
2022-07-27T21:07:36.677Z,101872.44
2022-07-27T21:10:05.660Z,101878.81
2022-07-27T21:12:33.599Z,101875.34
2022-07-27T21:15:01.516Z,101883.00
2022-07-27T21:17:29.635Z,101882.53
2022-07-27T21:19:58.962Z,101884.19
2022-07-27T21:22:27.109Z,101886.41
2022-07-27T21:24:55.180Z,101884.81
2022-07-27T21:27:23.792Z,101890.31
2022-07-27T21:29:52.605Z,101894.94
2022-07-27T21:32:20.574Z,101898.03
2022-07-27T21:34:48.473Z,101899.09
2022-07-27T21:37:17.684Z,101897.56
2022-07-27T21:39:46.371Z,101902.94
2022-07-27T21:42:14.264Z,101900.25
2022-07-27T21:44:42.206Z,101891.72
2022-07-27T21:47:13.787Z,101892.91
2022-07-27T21:49:42.587Z,101895.59
2022-07-27T21:52:11.307Z,101897.41
2022-07-27T21:54:40.898Z,101898.81
2022-07-27T21:57:08.789Z,101889.91
2022-07-27T21:59:36.863Z,101900.47
2022-07-27T22:02:05.180Z,101893.25
2022-07-27T22:04:33.338Z,101898.13
2022-07-27T22:07:01.311Z,101893.38
2022-07-27T22:09:29.667Z,101888.75
2022-07-27T22:11:59.044Z,101899.03
2022-07-27T22:14:27.044Z,101893.66
2022-07-27T22:16:55.138Z,101897.69
2022-07-27T22:19:23.496Z,101893.38
2022-07-27T22:21:51.621Z,101901.66
2022-07-27T22:24:20.120Z,101904.03
2022-07-27T22:26:49.199Z,101904.03
2022-07-27T22:29:18.672Z,101911.16
2022-07-27T22:31:46.665Z,101912.09
2022-07-27T22:34:15.057Z,101920.03
2022-07-27T22:36:43.296Z,101914.53
2022-07-27T22:39:11.117Z,101916.53
2022-07-27T22:41:41.421Z,101910.69
2022-07-27T22:44:09.449Z,101911.13
2022-07-27T22:46:38.934Z,101906.91
2022-07-27T22:49:07.357Z,101900.56
2022-07-27T22:51:49.784Z,101903.25
2022-07-27T22:54:21.041Z,101908.09
2022-07-27T22:56:49.120Z,101908.88
2022-07-27T22:59:17.026Z,101916.25
2022-07-27T23:01:48.250Z,101911.56
2022-07-27T23:04:17.955Z,101919.63
2022-07-27T23:06:46.726Z,101919.81
2022-07-27T23:09:14.794Z,101918.94
2022-07-27T23:11:42.861Z,101921.84
2022-07-27T23:14:11.273Z,101915.97
2022-07-27T23:16:39.764Z,101924.44
2022-07-27T23:19:09.612Z,101917.31
2022-07-27T23:21:37.653Z,101918.69
2022-07-27T23:24:07.030Z,101918.69
2022-07-27T23:26:35.007Z,101923.31
2022-07-27T23:29:03.022Z,101915.66
2022-07-27T23:31:31.229Z,101916.91
2022-07-27T23:33:59.595Z,101912.59
2022-07-27T23:36:28.982Z,101909.25
2022-07-27T23:38:56.867Z,101913.06
2022-07-27T23:41:24.851Z,101910.00
2022-07-27T23:43:52.731Z,101917.50
2022-07-27T23:46:20.832Z,101912.03
2022-07-27T23:48:49.208Z,101917.41
2022-07-27T23:51:18.556Z,101914.72
2022-07-27T23:53:48.060Z,101917.81
2022-07-27T23:56:16.176Z,101905.53
2022-07-27T23:58:45.786Z,101909.25
